Time;durP1;ratioP1;P1;durP2;ratioP2;P2;SDS_P1;SDS_P2;PMS_P1;PMS_P2;Temp;Humidity;BMP_temperature;BMP_pressure;BME280_temperature;BME280_humidity;BME280_pressure;Samples;Min_cycle;Max_cycle;Signal;HPM_P1;HPM_P2
2022/10/08 00:02:13;;;;;;;6.87;3.53;;;17.40;81.90;;;;;;4966740;28;20262;-76
2022/10/08 00:04:42;;;;;;;9.03;3.90;;;17.40;82.10;;;;;;4966604;28;20201;-78
2022/10/08 00:07:10;;;;;;;5.77;3.30;;;17.40;82.20;;;;;;4969315;28;20224;-77
2022/10/08 00:09:38;;;;;;;7.83;3.90;;;17.40;82.30;;;;;;4963997;28;20659;-76
2022/10/08 00:12:08;;;;;;;7.80;3.47;;;17.30;82.20;;;;;;4967253;28;20663;-76
2022/10/08 00:14:37;;;;;;;8.10;3.63;;;17.30;82.20;;;;;;4972540;28;20233;-76
2022/10/08 00:17:05;;;;;;;5.60;3.50;;;17.30;82.20;;;;;;4968720;28;20241;-76
2022/10/08 00:19:33;;;;;;;5.70;3.77;;;17.40;82.30;;;;;;4970902;28;20202;-76
2022/10/08 00:22:02;;;;;;;7.57;3.77;;;17.30;82.30;;;;;;4971215;28;20283;-76
2022/10/08 00:24:30;;;;;;;9.57;3.90;;;17.30;82.30;;;;;;4967494;28;20234;-76
2022/10/08 00:26:59;;;;;;;8.93;3.80;;;17.30;82.40;;;;;;4963585;28;20655;-76
2022/10/08 00:29:29;;;;;;;5.97;3.53;;;17.30;82.50;;;;;;4968758;28;20694;-76
2022/10/08 00:31:57;;;;;;;7.20;3.03;;;17.40;82.60;;;;;;4964262;28;20232;-76
2022/10/08 00:34:26;;;;;;;6.93;3.50;;;17.30;82.90;;;;;;4963263;28;20640;-76
2022/10/08 00:36:55;;;;;;;7.17;4.07;;;17.30;82.80;;;;;;4967666;28;20315;-77
2022/10/08 00:39:25;;;;;;;13.60;3.50;;;17.30;82.90;;;;;;4968688;28;20280;-76
2022/10/08 00:41:55;;;;;;;8.70;3.40;;;17.30;82.90;;;;;;4965166;28;20722;-77
2022/10/08 00:44:54;;;;;;;5.43;3.33;;;17.30;82.80;;;;;;4970137;28;20201;-77
2022/10/08 00:47:39;;;;;;;5.13;3.70;;;17.30;82.90;;;;;;4970559;28;20256;-77
2022/10/08 00:50:12;;;;;;;6.67;3.47;;;17.30;83.00;;;;;;4967700;28;20193;-76
2022/10/08 00:52:43;;;;;;;6.20;3.70;;;17.30;83.10;;;;;;4962652;28;20280;-76
2022/10/08 00:55:15;;;;;;;5.93;3.40;;;17.20;84.10;;;;;;4970739;28;20637;-76
2022/10/08 00:57:43;;;;;;;7.20;3.67;;;17.20;83.30;;;;;;4971739;28;20573;-76
2022/10/08 01:00:16;;;;;;;5.53;3.77;;;17.20;83.40;;;;;;4967288;28;20225;-76
2022/10/08 01:02:44;;;;;;;7.17;3.70;;;17.20;83.50;;;;;;4964871;28;20194;-77
2022/10/08 01:05:15;;;;;;;7.53;3.87;;;17.20;83.40;;;;;;4961519;28;20569;-76
2022/10/08 01:07:51;;;;;;;10.70;4.03;;;17.20;83.40;;;;;;4969016;28;20647;-77
2022/10/08 01:10:32;;;;;;;6.00;3.70;;;17.20;83.50;;;;;;4965037;28;20292;-77
2022/10/08 01:13:17;;;;;;;6.90;4.00;;;17.20;83.70;;;;;;4958829;28;20658;-77
2022/10/08 01:15:55;;;;;;;9.63;4.67;;;17.10;83.50;;;;;;4969917;28;20194;-76
2022/10/08 01:18:34;;;;;;;8.73;4.07;;;17.10;83.50;;;;;;4966437;28;20272;-76
2022/10/08 01:21:09;;;;;;;9.00;4.33;;;17.10;83.50;;;;;;4965363;28;20732;-76
2022/10/08 01:24:02;;;;;;;8.13;4.33;;;17.10;83.60;;;;;;4966773;28;20225;-76
2022/10/08 01:26:49;;;;;;;6.63;3.90;;;17.10;83.70;;;;;;4970399;28;20287;-77
2022/10/08 01:29:21;;;;;;;9.00;3.93;;;17.10;83.70;;;;;;4965294;28;20189;-77
2022/10/08 01:31:54;;;;;;;6.77;4.10;;;17.10;83.60;;;;;;4967360;28;20194;-76
2022/10/08 01:34:29;;;;;;;7.27;4.13;;;17.10;83.70;;;;;;4968732;28;20210;-76
2022/10/08 01:36:59;;;;;;;8.87;4.57;;;17.10;83.70;;;;;;4964960;28;20189;-77
2022/10/08 01:39:31;;;;;;;6.57;4.27;;;17.10;83.70;;;;;;4968819;28;20202;-76
2022/10/08 01:42:03;;;;;;;7.53;4.13;;;17.10;83.80;;;;;;4966027;28;20194;-76
2022/10/08 01:44:37;;;;;;;5.73;3.70;;;17.10;83.80;;;;;;4960592;28;20203;-76
2022/10/08 01:47:10;;;;;;;7.90;4.00;;;17.10;83.90;;;;;;4966400;28;20216;-76
2022/10/08 01:49:42;;;;;;;7.23;4.60;;;17.10;83.90;;;;;;4963975;28;20197;-78
2022/10/08 01:52:18;;;;;;;9.60;3.90;;;17.10;83.80;;;;;;4967242;28;20225;-76
2022/10/08 01:54:49;;;;;;;9.93;4.10;;;17.10;83.90;;;;;;4962218;28;20233;-76
2022/10/08 01:57:17;;;;;;;8.23;4.10;;;17.10;83.90;;;;;;4964144;28;20206;-76
2022/10/08 01:59:51;;;;;;;6.33;3.93;;;17.00;83.80;;;;;;4968047;28;20260;-76
2022/10/08 02:02:21;;;;;;;10.77;4.03;;;17.00;83.80;;;;;;4963929;28;20202;-76
2022/10/08 02:04:52;;;;;;;6.10;4.00;;;17.00;83.90;;;;;;4968514;28;20208;-77
2022/10/08 02:07:24;;;;;;;7.20;3.93;;;17.00;83.80;;;;;;4961027;28;20634;-76
2022/10/08 02:10:00;;;;;;;6.63;4.10;;;17.00;83.80;;;;;;4966877;28;20234;-76
2022/10/08 02:12:30;;;;;;;13.07;4.40;;;17.00;83.80;;;;;;4967190;28;20654;-76
2022/10/08 02:15:00;;;;;;;6.10;4.33;;;17.00;83.90;;;;;;4968775;28;20205;-77
2022/10/08 02:17:36;;;;;;;6.73;3.77;;;17.00;83.90;;;;;;4964685;28;20202;-76
2022/10/08 02:20:15;;;;;;;6.43;4.00;;;17.00;84.00;;;;;;4964479;28;20194;-77
2022/10/08 02:22:52;;;;;;;7.33;4.00;;;16.90;84.00;;;;;;4966516;28;20286;-76
2022/10/08 02:25:28;;;;;;;6.20;3.43;;;16.90;84.10;;;;;;4965795;28;20229;-76
2022/10/08 02:28:05;;;;;;;8.70;4.53;;;16.90;84.00;;;;;;4965301;28;20193;-76
2022/10/08 02:30:40;;;;;;;6.10;3.73;;;16.90;84.20;;;;;;4963420;28;20194;-76
2022/10/08 02:33:14;;;;;;;6.07;3.93;;;16.90;84.30;;;;;;4960530;28;20224;-76
2022/10/08 02:35:46;;;;;;;7.93;4.23;;;16.90;84.40;;;;;;4966490;28;20198;-76
2022/10/08 02:38:18;;;;;;;9.00;4.20;;;16.90;84.50;;;;;;4970474;28;20209;-76
2022/10/08 02:40:50;;;;;;;9.43;4.30;;;16.90;84.70;;;;;;4967985;28;20253;-76
2022/10/08 02:43:22;;;;;;;6.27;4.07;;;16.80;84.70;;;;;;4968333;28;20240;-76
2022/10/08 02:45:56;;;;;;;8.97;4.23;;;16.80;84.60;;;;;;4964427;28;20281;-76
2022/10/08 02:48:30;;;;;;;7.47;4.43;;;16.80;84.70;;;;;;4970251;28;20654;-76
2022/10/08 02:51:02;;;;;;;7.30;4.37;;;16.80;84.80;;;;;;4971285;28;20202;-76
2022/10/08 02:53:31;;;;;;;8.23;4.40;;;16.80;84.90;;;;;;4967088;28;20286;-76
2022/10/08 02:56:08;;;;;;;7.87;4.23;;;16.70;84.90;;;;;;4972984;28;20284;-76
2022/10/08 02:58:37;;;;;;;6.77;4.00;;;16.70;85.00;;;;;;4971542;28;20293;-76
2022/10/08 03:01:15;;;;;;;8.77;4.37;;;16.70;85.20;;;;;;4968065;28;20264;-77
2022/10/08 03:03:48;;;;;;;7.33;4.30;;;16.70;85.30;;;;;;4971010;28;20568;-76
2022/10/08 03:06:18;;;;;;;6.63;4.17;;;16.70;85.30;;;;;;4968990;28;20202;-76
2022/10/08 03:08:49;;;;;;;6.67;4.30;;;16.70;85.30;;;;;;4961986;28;20190;-76
2022/10/08 03:11:17;;;;;;;6.83;4.40;;;16.70;85.40;;;;;;4966384;28;20240;-76
2022/10/08 03:13:48;;;;;;;9.17;4.67;;;16.60;85.30;;;;;;4968570;28;20665;-77
2022/10/08 03:16:21;;;;;;;7.27;4.43;;;16.60;85.60;;;;;;4974556;28;20221;-76
2022/10/08 03:18:51;;;;;;;9.53;4.47;;;16.60;85.60;;;;;;4963283;28;20691;-76
2022/10/08 03:21:20;;;;;;;7.67;4.53;;;16.60;85.60;;;;;;4965174;28;20241;-76
2022/10/08 03:23:48;;;;;;;7.40;4.37;;;16.50;85.50;;;;;;4972137;28;20607;-76
2022/10/08 03:26:17;;;;;;;7.60;4.40;;;16.50;85.60;;;;;;4971452;28;20233;-76
2022/10/08 03:28:46;;;;;;;8.83;4.67;;;16.50;85.60;;;;;;4964131;28;20221;-77
2022/10/08 03:31:14;;;;;;;12.30;4.97;;;16.50;85.80;;;;;;4962663;28;20795;-76
2022/10/08 03:33:49;;;;;;;7.33;4.50;;;16.50;85.80;;;;;;4968183;28;20202;-76
2022/10/08 03:36:17;;;;;;;7.50;4.63;;;16.50;85.90;;;;;;4970213;28;20201;-76
2022/10/08 03:38:46;;;;;;;9.30;4.47;;;16.40;85.90;;;;;;4968993;28;20222;-76
2022/10/08 03:41:15;;;;;;;9.37;5.20;;;16.40;85.80;;;;;;4966578;28;20219;-76
2022/10/08 03:43:44;;;;;;;6.77;4.10;;;16.40;85.80;;;;;;4963575;28;20623;-76
2022/10/08 03:46:13;;;;;;;7.50;4.63;;;16.40;85.90;;;;;;4970838;28;20573;-77
2022/10/08 03:48:42;;;;;;;11.43;4.60;;;16.40;86.70;;;;;;4972194;28;20675;-76
2022/10/08 03:51:14;;;;;;;9.50;4.77;;;16.40;85.80;;;;;;4969160;28;20210;-77
2022/10/08 03:53:43;;;;;;;8.07;4.70;;;16.40;85.80;;;;;;4964831;28;20201;-76
2022/10/08 03:56:14;;;;;;;8.17;4.47;;;16.40;85.90;;;;;;4971849;28;20217;-76
2022/10/08 03:58:42;;;;;;;8.53;4.73;;;16.30;86.10;;;;;;4970497;28;20241;-76
2022/10/08 04:01:13;;;;;;;8.37;5.03;;;16.40;86.20;;;;;;4963239;28;20288;-77
2022/10/08 04:03:41;;;;;;;9.27;5.60;;;16.30;86.20;;;;;;4961904;28;20233;-76
2022/10/08 04:06:09;;;;;;;7.63;4.87;;;16.30;86.30;;;;;;4972533;28;20229;-76
2022/10/08 04:08:40;;;;;;;9.93;5.03;;;16.30;86.60;;;;;;4969348;28;20733;-77
2022/10/08 04:11:09;;;;;;;9.33;4.70;;;16.30;86.60;;;;;;4969262;28;20256;-76
2022/10/08 04:13:38;;;;;;;9.03;4.97;;;16.30;86.70;;;;;;4966433;28;20280;-76
2022/10/08 04:16:09;;;;;;;10.60;4.90;;;16.20;86.70;;;;;;4968296;28;20651;-76
2022/10/08 04:18:37;;;;;;;9.97;4.97;;;16.20;86.90;;;;;;4964732;28;20264;-76
2022/10/08 04:21:07;;;;;;;13.13;5.30;;;16.20;86.90;;;;;;4966115;28;20355;-76
2022/10/08 04:23:38;;;;;;;9.53;5.37;;;16.20;87.10;;;;;;4967736;28;20285;-77
2022/10/08 04:26:08;;;;;;;8.27;5.17;;;16.10;87.00;;;;;;4970608;28;20277;-77
2022/10/08 04:28:37;;;;;;;11.10;5.50;;;16.10;87.20;;;;;;4963833;28;20210;-77
2022/10/08 04:31:08;;;;;;;8.73;5.37;;;16.10;87.30;;;;;;4970244;28;20252;-77
2022/10/08 04:33:37;;;;;;;11.27;5.60;;;16.10;87.50;;;;;;4971295;28;20208;-76
2022/10/08 04:36:09;;;;;;;9.27;5.00;;;16.00;87.60;;;;;;4971585;28;20604;-76
2022/10/08 04:38:37;;;;;;;10.20;5.33;;;16.00;87.80;;;;;;4971173;28;20573;-76
2022/10/08 04:41:08;;;;;;;7.60;5.10;;;16.00;87.90;;;;;;4967859;28;20667;-76
2022/10/08 04:43:38;;;;;;;9.73;5.73;;;16.00;87.90;;;;;;4963244;28;20339;-76
2022/10/08 04:46:09;;;;;;;12.37;5.33;;;15.90;88.20;;;;;;4966865;28;20276;-76
2022/10/08 04:48:38;;;;;;;9.67;5.77;;;15.90;88.40;;;;;;4966988;28;20241;-76
2022/10/08 04:51:08;;;;;;;10.60;5.47;;;15.90;88.50;;;;;;4965755;28;20226;-76
2022/10/08 04:53:38;;;;;;;9.57;5.83;;;15.90;88.90;;;;;;4961469;28;20459;-77
2022/10/08 04:56:13;;;;;;;9.70;5.50;;;15.90;90.00;;;;;;4968881;28;20560;-76
2022/10/08 04:58:41;;;;;;;8.07;5.13;;;15.90;89.90;;;;;;4963428;28;20228;-76
2022/10/08 05:01:12;;;;;;;8.70;5.37;;;15.90;89.80;;;;;;4962288;28;20206;-76
2022/10/08 05:03:41;;;;;;;12.90;6.03;;;15.90;89.80;;;;;;4970709;28;20280;-76
2022/10/08 05:06:10;;;;;;;13.93;6.37;;;15.90;89.80;;;;;;4968217;28;20289;-77
2022/10/08 05:08:39;;;;;;;9.43;5.97;;;15.90;90.00;;;;;;4968776;28;20233;-76
2022/10/08 05:11:07;;;;;;;12.60;6.40;;;15.90;90.00;;;;;;4973008;28;20221;-76
2022/10/08 05:13:37;;;;;;;10.87;6.20;;;15.90;90.10;;;;;;4968777;28;20209;-77
2022/10/08 05:16:07;;;;;;;12.67;6.60;;;15.90;90.20;;;;;;4967060;28;20194;-76
2022/10/08 05:18:37;;;;;;;10.83;6.20;;;15.90;90.20;;;;;;4970845;28;20225;-76
2022/10/08 05:21:06;;;;;;;12.67;6.77;;;15.90;90.20;;;;;;4980272;28;20220;-77
2022/10/08 05:23:35;;;;;;;15.77;6.73;;;15.90;90.10;;;;;;4985432;28;20197;-77
2022/10/08 05:26:12;;;;;;;11.77;6.63;;;16.00;90.30;;;;;;4983273;28;20229;-76
2022/10/08 05:28:42;;;;;;;9.77;6.83;;;16.00;90.40;;;;;;4989331;28;20344;-77
2022/10/08 05:31:11;;;;;;;15.13;6.43;;;16.00;90.50;;;;;;4980536;28;20225;-76
2022/10/08 05:33:40;;;;;;;13.32;7.60;;;16.00;90.60;;;;;;4985248;28;20847;-76
2022/10/08 05:36:19;;;;;;;15.63;7.03;;;16.10;91.00;;;;;;4981279;28;20205;-76
2022/10/08 05:38:48;;;;;;;11.43;6.43;;;16.10;91.00;;;;;;4983138;28;20729;-77
2022/10/08 05:41:19;;;;;;;9.03;6.17;;;16.10;91.00;;;;;;4988557;28;20718;-77
2022/10/08 05:43:49;;;;;;;8.57;5.63;;;16.20;90.90;;;;;;4981198;28;20246;-76
2022/10/08 05:46:18;;;;;;;10.87;6.23;;;16.20;90.90;;;;;;4989227;28;20202;-77
2022/10/08 05:48:46;;;;;;;12.40;6.43;;;16.20;91.00;;;;;;4982489;28;20201;-77
2022/10/08 05:51:16;;;;;;;11.00;6.23;;;16.30;91.10;;;;;;4981251;28;20198;-76
2022/10/08 05:53:46;;;;;;;11.43;6.77;;;16.30;91.10;;;;;;4981614;28;20279;-77
2022/10/08 05:56:17;;;;;;;11.30;6.80;;;16.30;91.50;;;;;;4984216;28;20228;-77
2022/10/08 05:58:46;;;;;;;12.17;6.50;;;16.40;91.10;;;;;;4962093;28;20256;-76
2022/10/08 06:01:19;;;;;;;12.83;7.43;;;16.40;91.10;;;;;;4983481;28;20260;-76
2022/10/08 06:03:50;;;;;;;13.10;6.67;;;16.50;91.20;;;;;;4987244;28;20720;-77
2022/10/08 06:06:18;;;;;;;11.27;6.67;;;16.50;91.00;;;;;;4978772;28;20193;-77
2022/10/08 06:08:47;;;;;;;11.70;6.43;;;16.60;91.10;;;;;;4986583;28;20209;-77
2022/10/08 06:11:16;;;;;;;18.73;7.43;;;16.60;91.00;;;;;;4980380;28;20625;-77
2022/10/08 06:13:44;;;;;;;10.73;6.93;;;16.60;91.00;;;;;;4983054;28;20236;-77
2022/10/08 06:16:13;;;;;;;10.93;6.80;;;16.70;91.00;;;;;;4984789;28;20260;-77
2022/10/08 06:18:42;;;;;;;14.73;7.70;;;16.80;91.00;;;;;;4984704;28;20202;-76
2022/10/08 06:21:13;;;;;;;11.20;7.33;;;16.80;91.00;;;;;;4986712;28;20264;-78
2022/10/08 06:23:46;;;;;;;14.43;8.23;;;16.90;91.00;;;;;;4985728;28;20260;-78
2022/10/08 06:26:16;;;;;;;9.87;6.83;;;17.00;90.90;;;;;;4988151;28;20224;-78
2022/10/08 06:28:45;;;;;;;9.77;6.30;;;16.90;91.10;;;;;;4986282;28;20196;-76
2022/10/08 06:31:14;;;;;;;15.20;6.17;;;17.00;91.00;;;;;;4990681;28;20197;-78
2022/10/08 06:33:44;;;;;;;9.47;5.73;;;17.10;91.10;;;;;;4987611;28;20205;-79
2022/10/08 06:36:15;;;;;;;9.57;5.63;;;17.20;91.10;;;;;;4988427;28;20192;-77
2022/10/08 06:38:43;;;;;;;9.23;4.63;;;17.30;90.90;;;;;;4981065;28;22227;-77
2022/10/08 06:41:12;;;;;;;7.90;4.87;;;17.40;90.90;;;;;;4987078;28;20600;-77
2022/10/08 06:43:40;;;;;;;8.77;4.43;;;17.50;90.80;;;;;;4986343;28;20253;-77
2022/10/08 06:46:09;;;;;;;7.83;4.37;;;17.50;90.40;;;;;;4990829;28;20271;-77
2022/10/08 06:48:37;;;;;;;6.07;3.67;;;17.60;90.20;;;;;;4994261;28;20237;-77
2022/10/08 06:51:11;;;;;;;10.63;4.10;;;17.70;89.60;;;;;;4984150;28;20253;-77
2022/10/08 06:53:39;;;;;;;6.97;3.40;;;17.80;89.30;;;;;;4983184;28;20233;-76
2022/10/08 06:56:13;;;;;;;6.47;3.43;;;17.90;88.60;;;;;;4988630;28;20197;-76
2022/10/08 06:58:43;;;;;;;7.27;3.23;;;18.00;88.30;;;;;;4992257;28;20208;-76
2022/10/08 07:01:15;;;;;;;5.30;3.33;;;18.10;87.70;;;;;;4982175;28;20217;-77
2022/10/08 07:03:43;;;;;;;9.10;4.10;;;18.20;86.90;;;;;;4980573;28;20200;-77
2022/10/08 07:06:16;;;;;;;7.23;3.63;;;18.30;86.60;;;;;;4979381;28;20204;-77
2022/10/08 07:08:44;;;;;;;7.50;3.27;;;18.30;86.10;;;;;;4991156;28;20263;-75
2022/10/08 07:11:14;;;;;;;6.30;3.90;;;18.40;85.80;;;;;;4981533;28;20616;-77
2022/10/08 07:13:43;;;;;;;10.00;4.80;;;18.50;85.60;;;;;;4984889;28;20230;-78
2022/10/08 07:16:14;;;;;;;9.73;3.90;;;18.50;85.20;;;;;;4981848;28;20729;-78
2022/10/08 07:18:49;;;;;;;6.27;3.90;;;18.60;84.30;;;;;;4981433;28;20284;-77
2022/10/08 07:21:19;;;;;;;9.10;3.83;;;18.70;84.40;;;;;;4987174;28;20233;-76
2022/10/08 07:23:48;;;;;;;7.50;3.87;;;18.80;84.60;;;;;;4984578;28;20201;-77
2022/10/08 07:26:18;;;;;;;7.20;3.30;;;18.90;84.40;;;;;;4992168;28;20209;-77
2022/10/08 07:28:50;;;;;;;6.03;3.67;;;19.00;84.30;;;;;;4993810;28;20655;-76
2022/10/08 07:31:20;;;;;;;7.67;3.83;;;19.00;83.80;;;;;;4979110;28;20202;-77
2022/10/08 07:33:49;;;;;;;5.43;3.60;;;19.00;83.30;;;;;;4987266;28;20285;-76
2022/10/08 07:36:22;;;;;;;7.38;3.97;;;19.20;83.40;;;;;;4985839;28;20516;-76
2022/10/08 07:38:54;;;;;;;7.77;4.00;;;19.30;82.90;;;;;;4986134;28;20197;-75
2022/10/08 07:41:23;;;;;;;4.90;3.47;;;19.30;82.70;;;;;;4983719;28;22281;-76
2022/10/08 07:43:52;;;;;;;6.67;3.70;;;19.30;82.70;;;;;;4988102;28;20646;-76
2022/10/08 07:46:21;;;;;;;8.27;3.77;;;19.40;82.60;;;;;;4988160;28;20706;-75
2022/10/08 07:48:50;;;;;;;8.13;3.57;;;19.50;82.60;;;;;;4979805;28;20325;-75
2022/10/08 07:51:21;;;;;;;9.73;4.03;;;19.50;82.20;;;;;;4987398;28;20197;-76
2022/10/08 07:53:49;;;;;;;6.67;4.17;;;19.60;82.20;;;;;;4986002;28;20197;-76
2022/10/08 07:56:20;;;;;;;4.77;3.27;;;19.70;82.90;;;;;;4986104;28;20255;-75
2022/10/08 07:58:49;;;;;;;7.73;4.30;;;19.70;82.10;;;;;;4988900;28;20240;-76
2022/10/08 08:01:19;;;;;;;10.10;4.13;;;19.80;82.10;;;;;;4988864;28;20252;-75
2022/10/08 08:03:54;;;;;;;7.93;4.30;;;19.90;82.10;;;;;;4982642;28;20216;-75
2022/10/08 08:06:25;;;;;;;11.87;4.00;;;20.00;81.90;;;;;;4983738;28;20273;-75
2022/10/08 08:08:54;;;;;;;7.37;4.00;;;20.00;81.60;;;;;;4990555;28;20685;-75
2022/10/08 08:11:24;;;;;;;8.53;3.87;;;20.10;81.30;;;;;;4983817;28;20295;-75
2022/10/08 08:13:53;;;;;;;8.33;4.30;;;20.20;81.20;;;;;;4984152;28;20233;-77
2022/10/08 08:16:25;;;;;;;5.53;3.20;;;20.20;80.90;;;;;;4985342;28;20662;-77
2022/10/08 08:18:56;;;;;;;7.72;3.40;;;20.30;80.70;;;;;;5000471;28;20248;-78
2022/10/08 08:21:27;;;;;;;7.18;3.90;;;20.40;80.40;;;;;;4984128;28;20548;-78
2022/10/08 08:23:58;;;;;;;7.65;3.67;;;20.50;79.60;;;;;;4982640;28;20647;-76
2022/10/08 08:26:28;;;;;;;8.23;3.42;;;20.50;79.80;;;;;;4983442;28;20268;-77
2022/10/08 08:28:58;;;;;;;6.35;3.45;;;20.50;79.90;;;;;;4990298;28;20631;-77
2022/10/08 08:31:29;;;;;;;5.85;3.70;;;20.60;79.90;;;;;;4983140;28;20294;-79
2022/10/08 08:33:59;;;;;;;9.18;3.65;;;20.60;79.70;;;;;;4989190;28;20195;-78
2022/10/08 08:36:30;;;;;;;8.57;3.80;;;20.70;79.20;;;;;;4981632;28;20225;-79
2022/10/08 08:38:59;;;;;;;7.50;3.40;;;20.70;77.90;;;;;;4989361;28;20224;-78
2022/10/08 08:41:59;;;;;;;7.10;3.22;;;20.80;77.80;;;;;;4979507;28;20260;-78
2022/10/08 08:44:36;;;;;;;10.32;3.95;;;20.80;77.70;;;;;;4990520;28;20209;-79
2022/10/08 08:47:12;;;;;;;8.60;3.50;;;20.90;77.40;;;;;;4986337;28;20225;-78
2022/10/08 08:49:43;;;;;;;6.45;3.08;;;21.00;77.30;;;;;;4987512;28;20188;-78
2022/10/08 08:52:15;;;;;;;6.95;3.75;;;21.00;77.30;;;;;;4981686;28;20244;-77
2022/10/08 08:54:48;;;;;;;8.02;4.07;;;21.10;77.30;;;;;;4980024;28;20247;-77
2022/10/08 08:57:32;;;;;;;8.15;3.70;;;21.10;77.00;;;;;;4979632;28;20670;-78
2022/10/08 09:00:05;;;;;;;6.68;3.88;;;21.20;76.90;;;;;;4981639;28;20192;-80
2022/10/08 09:02:38;;;;;;;6.70;3.67;;;21.20;76.40;;;;;;4975736;28;20225;-78
2022/10/08 09:05:12;;;;;;;9.10;3.80;;;21.30;75.50;;;;;;4975263;28;20729;-78
2022/10/08 09:07:46;;;;;;;13.30;4.15;;;21.30;75.20;;;;;;4984060;28;20198;-79
2022/10/08 09:10:19;;;;;;;9.73;4.18;;;21.40;75.20;;;;;;4981834;28;20741;-78
2022/10/08 09:12:51;;;;;;;7.85;4.13;;;21.40;75.20;;;;;;4979802;28;20236;-80
2022/10/08 09:15:21;;;;;;;7.63;3.58;;;21.50;75.00;;;;;;4985956;28;20201;-79
2022/10/08 09:17:52;;;;;;;9.20;4.40;;;21.50;75.00;;;;;;4989233;28;20197;-79
2022/10/08 09:20:23;;;;;;;7.72;4.32;;;21.60;74.70;;;;;;4981115;28;20591;-79
2022/10/08 09:22:54;;;;;;;8.15;4.65;;;21.60;74.40;;;;;;4984034;28;20209;-78
2022/10/08 09:25:27;;;;;;;6.82;4.15;;;21.70;73.90;;;;;;4989909;28;20330;-80
2022/10/08 09:27:57;;;;;;;6.72;4.18;;;21.80;73.40;;;;;;4991266;28;20256;-79
2022/10/08 09:30:32;;;;;;;6.55;3.67;;;21.80;73.30;;;;;;4985591;28;20213;-79
2022/10/08 09:33:04;;;;;;;8.82;4.95;;;21.80;72.10;;;;;;4981724;28;20284;-79
2022/10/08 09:35:34;;;;;;;5.35;3.72;;;21.90;72.10;;;;;;4979297;28;20193;-79
2022/10/08 09:38:04;;;;;;;6.28;3.80;;;21.90;72.10;;;;;;4989508;28;20228;-77
2022/10/08 09:40:33;;;;;;;7.18;4.65;;;22.00;71.90;;;;;;4978403;28;20206;-79
2022/10/08 09:43:14;;;;;;;6.35;4.00;;;22.00;71.30;;;;;;4987594;28;20698;-79
2022/10/08 09:45:45;;;;;;;9.13;4.00;;;22.10;71.40;;;;;;4984587;28;20225;-78
2022/10/08 09:48:24;;;;;;;9.35;4.18;;;22.10;71.50;;;;;;4981325;28;20677;-79
2022/10/08 09:51:02;;;;;;;8.15;4.13;;;22.20;70.50;;;;;;4980088;28;20227;-77
2022/10/08 09:53:44;;;;;;;6.22;3.83;;;22.20;69.90;;;;;;4980201;28;20200;-78
2022/10/08 09:56:13;;;;;;;6.57;3.85;;;22.30;70.00;;;;;;4985726;28;20204;-78
2022/10/08 09:58:52;;;;;;;7.57;3.78;;;22.30;69.90;;;;;;4986186;28;20306;-79
2022/10/08 10:01:23;;;;;;;5.85;3.85;;;22.30;69.70;;;;;;4982826;28;20220;-80
2022/10/08 10:03:54;;;;;;;7.78;3.60;;;22.40;69.40;;;;;;4987923;28;20202;-80
2022/10/08 10:06:32;;;;;;;7.00;3.05;;;22.40;69.40;;;;;;4982116;28;20299;-80
2022/10/08 10:09:06;;;;;;;6.53;3.10;;;22.50;68.70;;;;;;4990861;28;20197;-80
2022/10/08 10:11:40;;;;;;;5.78;3.08;;;22.60;68.80;;;;;;4987520;28;20228;-77
2022/10/08 10:14:20;;;;;;;6.05;3.40;;;22.60;68.60;;;;;;4988149;28;20255;-80
2022/10/08 10:16:54;;;;;;;4.80;3.00;;;22.60;68.50;;;;;;4993179;28;20899;-80
2022/10/08 10:19:29;;;;;;;5.57;2.92;;;22.70;67.80;;;;;;4986164;28;20200;-77
2022/10/08 10:22:02;;;;;;;6.97;3.08;;;22.70;67.90;;;;;;4977681;28;20252;-78
2022/10/08 10:24:48;;;;;;;3.65;2.67;;;22.80;67.80;;;;;;4983622;28;20202;-79
2022/10/08 10:27:23;;;;;;;4.70;3.00;;;22.80;67.20;;;;;;4985198;28;20211;-76
2022/10/08 10:30:00;;;;;;;3.65;2.55;;;22.80;66.90;;;;;;4982034;28;20229;-79
2022/10/08 10:32:35;;;;;;;5.53;2.40;;;22.90;66.80;;;;;;4988988;28;20255;-81
2022/10/08 10:35:11;;;;;;;6.30;2.42;;;22.80;63.80;;;;;;4988121;28;20244;-80
2022/10/08 10:37:47;;;;;;;4.93;2.40;;;22.90;65.00;;;;;;4986603;28;20646;-80
2022/10/08 10:40:42;;;;;;;5.90;2.00;;;23.00;65.00;;;;;;4987265;28;20197;-79
2022/10/08 10:43:33;;;;;;;4.43;2.33;;;23.00;64.90;;;;;;4988245;28;20261;-77
2022/10/08 10:46:20;;;;;;;6.30;2.50;;;23.10;65.10;;;;;;4986058;28;20193;-79
2022/10/08 10:48:49;;;;;;;4.80;2.08;;;23.10;65.30;;;;;;4980059;28;20393;-79
2022/10/08 10:51:37;;;;;;;7.72;2.17;;;23.20;64.60;;;;;;4981997;28;20236;-79
2022/10/08 10:54:19;;;;;;;5.50;2.45;;;23.20;64.20;;;;;;4982352;28;20240;-79
2022/10/08 10:56:55;;;;;;;5.13;2.75;;;23.20;63.60;;;;;;4984992;28;20255;-79
2022/10/08 10:59:46;;;;;;;5.72;2.40;;;23.30;63.80;;;;;;4983161;28;20193;-78
2022/10/08 11:02:23;;;;;;;4.53;1.80;;;23.40;63.70;;;;;;4989116;28;20263;-80
2022/10/08 11:05:04;;;;;;;3.40;1.90;;;23.40;63.60;;;;;;4987939;28;20658;-76
2022/10/08 11:08:04;;;;;;;3.20;1.60;;;23.50;63.00;;;;;;4987727;28;20255;-78
2022/10/08 11:10:45;;;;;;;4.22;1.70;;;23.50;61.90;;;;;;4984538;28;20240;-78
2022/10/08 11:13:32;;;;;;;3.88;1.80;;;23.60;62.40;;;;;;4981913;28;20259;-79
2022/10/08 11:16:10;;;;;;;5.10;1.88;;;23.60;61.80;;;;;;4989507;28;20193;-80
2022/10/08 11:18:47;;;;;;;5.45;2.10;;;23.70;61.90;;;;;;4980990;28;20597;-80
2022/10/08 11:21:27;;;;;;;3.22;1.98;;;23.80;61.30;;;;;;4987921;28;20371;-79
2022/10/08 11:24:11;;;;;;;3.15;1.98;;;23.80;61.30;;;;;;4991155;28;20292;-79
2022/10/08 11:26:45;;;;;;;3.28;1.90;;;23.90;61.30;;;;;;4979418;28;20205;-79
2022/10/08 11:29:22;;;;;;;4.45;2.05;;;23.90;61.30;;;;;;4981619;28;20283;-79
2022/10/08 11:31:52;;;;;;;4.28;1.83;;;23.90;60.50;;;;;;4981279;28;20662;-78
2022/10/08 11:34:26;;;;;;;9.55;2.10;;;23.90;60.50;;;;;;4988644;28;20233;-81
2022/10/08 11:37:11;;;;;;;4.03;2.00;;;23.90;60.10;;;;;;4990703;28;20706;-80
2022/10/08 11:39:47;;;;;;;4.95;2.33;;;24.00;60.20;;;;;;4985741;28;20193;-80
2022/10/08 11:42:23;;;;;;;3.00;1.70;;;24.00;60.20;;;;;;4980480;28;20201;-77
2022/10/08 11:44:53;;;;;;;2.75;1.60;;;24.10;60.20;;;;;;4983933;28;20244;-80
2022/10/08 11:47:49;;;;;;;3.30;1.50;;;24.10;58.70;;;;;;4987060;28;20607;-78
2022/10/08 11:50:28;;;;;;;5.78;2.08;;;24.00;57.80;;;;;;4986647;28;20204;-79
2022/10/08 11:53:00;;;;;;;2.67;1.67;;;24.00;57.70;;;;;;4987260;28;20260;-80
2022/10/08 11:55:32;;;;;;;3.55;1.67;;;24.10;58.20;;;;;;4988067;28;20292;-79
2022/10/08 11:58:03;;;;;;;3.45;1.75;;;24.00;57.20;;;;;;4988753;28;20354;-79
2022/10/08 12:00:42;;;;;;;3.63;1.80;;;24.10;57.20;;;;;;4981109;28;20213;-80
2022/10/08 12:03:25;;;;;;;2.67;1.80;;;24.10;57.60;;;;;;4979299;28;20252;-79
2022/10/08 12:05:57;;;;;;;3.47;1.70;;;24.10;57.30;;;;;;4988123;28;20686;-79
2022/10/08 12:08:48;;;;;;;4.13;1.67;;;24.20;57.50;;;;;;4988482;28;20232;-79
2022/10/08 12:11:48;;;;;;;4.22;1.85;;;24.10;56.80;;;;;;4982991;28;20233;-77
2022/10/08 12:14:47;;;;;;;5.88;2.15;;;24.10;57.20;;;;;;4987850;28;20261;-79
2022/10/08 12:17:17;;;;;;;3.78;2.25;;;24.10;57.50;;;;;;4974122;28;20240;-79
2022/10/08 12:20:03;;;;;;;2.95;1.63;;;24.10;57.70;;;;;;4985799;28;20197;-79
2022/10/08 12:22:58;;;;;;;3.97;1.80;;;24.20;57.80;;;;;;4985151;28;20957;-80
2022/10/08 12:25:37;;;;;;;3.75;1.92;;;24.30;57.90;;;;;;4983381;28;20663;-80
2022/10/08 12:28:46;;;;;;;6.30;1.73;;;24.40;58.10;;;;;;4989508;28;20263;-79
2022/10/08 12:31:27;;;;;;;3.30;1.80;;;24.50;57.50;;;;;;4985010;28;20193;-79
2022/10/08 12:34:03;;;;;;;7.53;2.20;;;24.50;56.80;;;;;;4983710;28;20619;-77
2022/10/08 12:36:40;;;;;;;3.58;1.77;;;24.40;56.50;;;;;;4988638;28;20783;-78
2022/10/08 12:39:16;;;;;;;3.72;1.85;;;24.40;56.80;;;;;;4985456;28;20188;-79
2022/10/08 12:41:53;;;;;;;2.70;1.77;;;24.40;56.90;;;;;;4987557;28;20256;-78
2022/10/08 12:44:43;;;;;;;2.70;1.77;;;24.40;56.90;;;;;;4989652;28;20562;-79
2022/10/08 12:47:23;;;;;;;4.07;2.40;;;24.40;57.20;;;;;;4988347;28;20252;-79
2022/10/08 12:49:58;;;;;;;3.15;2.10;;;24.40;57.70;;;;;;4988104;28;20236;-79
2022/10/08 12:52:32;;;;;;;4.18;2.15;;;24.40;57.10;;;;;;4986006;28;20238;-79
2022/10/08 12:55:02;;;;;;;3.65;2.03;;;24.50;56.60;;;;;;4987916;28;20227;-80
2022/10/08 12:57:33;;;;;;;4.00;2.20;;;24.50;56.00;;;;;;4981900;28;20228;-80
2022/10/08 13:00:08;;;;;;;5.15;1.95;;;24.50;56.40;;;;;;4991636;28;20690;-79
2022/10/08 13:02:38;;;;;;;2.55;1.80;;;24.50;56.00;;;;;;4982678;28;20270;-79
2022/10/08 13:05:26;;;;;;;5.07;1.67;;;24.50;56.10;;;;;;4988316;28;20255;-78
2022/10/08 13:07:54;;;;;;;4.28;1.77;;;24.50;55.80;;;;;;4987096;28;20284;-77
2022/10/08 13:10:24;;;;;;;2.90;1.90;;;24.60;55.70;;;;;;4986304;28;20205;-76
2022/10/08 13:13:00;;;;;;;3.25;1.83;;;24.60;55.90;;;;;;4988658;28;20201;-75
2022/10/08 13:15:29;;;;;;;3.45;1.90;;;24.70;55.80;;;;;;4984677;28;20201;-75
2022/10/08 13:17:58;;;;;;;2.70;1.58;;;24.70;56.30;;;;;;4988845;28;20222;-76